createdAt,value
2023-01-11T00:00:19.457Z,97137.34
2023-01-11T00:02:48.547Z,97144.66
2023-01-11T00:05:17.385Z,97132.84
2023-01-11T00:07:47.727Z,97145.63
2023-01-11T00:10:16.693Z,97142.50
2023-01-11T00:12:45.493Z,97138.41
2023-01-11T00:15:14.442Z,97136.91
2023-01-11T00:17:43.508Z,97147.88
2023-01-11T00:20:12.564Z,97144.72
2023-01-11T00:22:41.286Z,97145.47
2023-01-11T00:25:12.075Z,97141.59
2023-01-11T00:27:40.847Z,97130.63
2023-01-11T00:30:10.511Z,97135.69
2023-01-11T00:32:39.627Z,97132.59
2023-01-11T00:35:09.627Z,97127.28
2023-01-11T00:37:38.445Z,97135.59
2023-01-11T00:40:08.032Z,97128.34
2023-01-11T00:42:51.870Z,97140.84
2023-01-11T00:45:34.230Z,97120.63
2023-01-11T00:48:05.136Z,97125.63
2023-01-11T00:50:35.098Z,97120.66
2023-01-11T00:53:04.001Z,97112.91
2023-01-11T00:55:33.413Z,97105.66
2023-01-11T00:58:03.827Z,97119.34
2023-01-11T01:00:32.669Z,97113.53
2023-01-11T01:03:01.499Z,97112.84
2023-01-11T01:05:31.689Z,97114.28
2023-01-11T01:08:00.565Z,97112.13
2023-01-11T01:10:29.667Z,97112.72
2023-01-11T01:13:12.427Z,97108.13
2023-01-11T01:15:43.196Z,97114.91
2023-01-11T01:18:13.066Z,97103.53
2023-01-11T01:20:42.043Z,97107.91
2023-01-11T01:23:10.870Z,97115.41
2023-01-11T01:25:39.857Z,97102.81
2023-01-11T01:28:08.643Z,97106.44
2023-01-11T01:30:40.236Z,97102.47
2023-01-11T01:33:11.721Z,97102.91
2023-01-11T01:35:40.762Z,97104.38
2023-01-11T01:38:09.606Z,97111.53
2023-01-11T01:40:43.309Z,97113.22
2023-01-11T01:43:13.731Z,97107.41
2023-01-11T01:45:43.997Z,97107.78
2023-01-11T01:48:16.029Z,97111.88
2023-01-11T01:50:46.293Z,97102.09
2023-01-11T01:53:16.139Z,97104.13
2023-01-11T01:55:46.494Z,97093.25
2023-01-11T01:58:16.108Z,97104.13
2023-01-11T02:00:46.234Z,97103.78
2023-01-11T02:03:17.865Z,97100.78
2023-01-11T02:05:46.717Z,97099.06
2023-01-11T02:08:19.254Z,97096.03
2023-01-11T02:10:48.513Z,97090.72
2023-01-11T02:13:17.337Z,97089.63
2023-01-11T02:15:46.591Z,97087.47
2023-01-11T02:18:18.893Z,97088.56
2023-01-11T02:20:56.750Z,97096.78
2023-01-11T02:23:38.235Z,97079.94
2023-01-11T02:26:20.668Z,97082.50
2023-01-11T02:28:53.521Z,97087.31
2023-01-11T02:31:27.879Z,97086.38
2023-01-11T02:34:02.085Z,97075.47
2023-01-11T02:36:35.266Z,97071.13
2023-01-11T02:39:07.378Z,97067.84
2023-01-11T02:41:52.049Z,97064.94
2023-01-11T02:44:37.048Z,97059.72
2023-01-11T02:47:06.709Z,97057.81
2023-01-11T02:49:37.375Z,97066.38
2023-01-11T02:52:09.599Z,97068.69
2023-01-11T02:54:38.467Z,97061.91
2023-01-11T02:57:07.333Z,97058.03
2023-01-11T02:59:37.875Z,97060.94
2023-01-11T03:02:06.834Z,97066.63
2023-01-11T03:04:37.755Z,97062.84
2023-01-11T03:07:15.936Z,97056.22
2023-01-11T03:09:50.815Z,97064.44
2023-01-11T03:12:42.553Z,97063.81
2023-01-11T03:15:21.808Z,97052.53
2023-01-11T03:17:54.903Z,97046.50
2023-01-11T03:20:25.622Z,97051.56
2023-01-11T03:23:05.369Z,97041.75
2023-01-11T03:25:38.169Z,97039.81
2023-01-11T03:28:12.700Z,97039.59
2023-01-11T03:31:01.857Z,97044.75
2023-01-11T03:33:34.515Z,97044.91
2023-01-11T03:36:07.806Z,97036.66
2023-01-11T03:38:38.709Z,97032.13
2023-01-11T03:41:08.549Z,97038.22
2023-01-11T03:43:38.203Z,97039.53
2023-01-11T03:46:09.787Z,97023.53
2023-01-11T03:48:40.325Z,97028.50
2023-01-11T03:51:11.370Z,97025.34
2023-01-11T03:53:40.390Z,97022.31
2023-01-11T03:56:12.131Z,97027.47
2023-01-11T03:58:41.449Z,97025.19
2023-01-11T04:01:11.991Z,97024.88
2023-01-11T04:03:40.806Z,97034.28
2023-01-11T04:06:10.759Z,97032.19
2023-01-11T04:08:39.646Z,97034.28
2023-01-11T04:11:08.484Z,97024.69
2023-01-11T04:13:37.584Z,97014.00
2023-01-11T04:16:06.718Z,97020.19
2023-01-11T04:18:36.924Z,97027.94
2023-01-11T04:21:06.439Z,97032.75
2023-01-11T04:23:35.991Z,97027.19
2023-01-11T04:26:05.166Z,97016.75
2023-01-11T04:28:34.039Z,97014.94
2023-01-11T04:31:02.877Z,97021.22
2023-01-11T04:33:32.067Z,97020.59
2023-01-11T04:36:05.495Z,97009.63
2023-01-11T04:38:34.948Z,97021.09
2023-01-11T04:41:17.481Z,97016.13
2023-01-11T04:43:46.573Z,97014.06
2023-01-11T04:46:16.016Z,97014.00
2023-01-11T04:49:03.246Z,97010.78
2023-01-11T04:51:33.881Z,97011.38
2023-01-11T04:54:02.758Z,97011.72
2023-01-11T04:56:31.756Z,97004.66
2023-01-11T04:59:00.911Z,97019.03
2023-01-11T05:01:29.817Z,97009.25
2023-01-11T05:03:58.778Z,97007.19
2023-01-11T05:06:27.790Z,97002.00
2023-01-11T05:08:58.489Z,96997.88
2023-01-11T05:11:27.345Z,96999.41
2023-01-11T05:14:00.198Z,96988.97
2023-01-11T05:16:29.388Z,96998.34
2023-01-11T05:18:58.806Z,96991.56
2023-01-11T05:21:28.523Z,96999.78
2023-01-11T05:23:59.463Z,96995.31
2023-01-11T05:26:29.483Z,96991.78
2023-01-11T05:28:59.239Z,96999.78
2023-01-11T05:31:29.151Z,96992.97
2023-01-11T05:33:58.200Z,96992.84
2023-01-11T05:36:27.300Z,97001.22
2023-01-11T05:38:58.088Z,97004.47
2023-01-11T05:41:27.634Z,97004.06
2023-01-11T05:44:11.421Z,96997.63
2023-01-11T05:46:40.867Z,96991.75
2023-01-11T05:49:10.114Z,96999.13
2023-01-11T05:51:40.571Z,96995.63
2023-01-11T05:54:13.169Z,96993.78
2023-01-11T05:56:42.707Z,96990.84
2023-01-11T05:59:12.680Z,96983.38
2023-01-11T06:01:41.534Z,96977.19
2023-01-11T06:04:11.975Z,96981.41
2023-01-11T06:06:41.620Z,96981.13
2023-01-11T06:09:12.208Z,96979.38
2023-01-11T06:11:59.239Z,96974.31
2023-01-11T06:14:28.378Z,96987.69
2023-01-11T06:16:57.269Z,96981.09
2023-01-11T06:19:26.263Z,96985.91
2023-01-11T06:21:55.078Z,96985.50
2023-01-11T06:24:26.329Z,96981.09
2023-01-11T06:26:55.174Z,96983.25
2023-01-11T06:29:24.023Z,96988.00
2023-01-11T06:31:53.153Z,96987.63
2023-01-11T06:34:21.979Z,96986.47
2023-01-11T06:36:51.139Z,96980.19
2023-01-11T06:39:20.379Z,96982.19
2023-01-11T06:41:51.265Z,96973.03
2023-01-11T06:44:20.625Z,96971.78
2023-01-11T06:46:49.735Z,96984.16
2023-01-11T06:49:20.869Z,96983.16
2023-01-11T06:51:49.811Z,96986.94
2023-01-11T06:54:24.582Z,96983.44
2023-01-11T06:56:54.879Z,96972.50
2023-01-11T06:59:23.693Z,96988.41
2023-01-11T07:01:53.556Z,96984.06
2023-01-11T07:04:22.738Z,96976.59
2023-01-11T07:06:54.601Z,96983.47
2023-01-11T07:09:23.503Z,96995.00
2023-01-11T07:11:53.708Z,96979.13
2023-01-11T07:14:24.975Z,96993.75
2023-01-11T07:16:54.001Z,96993.75
2023-01-11T07:19:22.834Z,96995.00
2023-01-11T07:21:51.821Z,97007.25
2023-01-11T07:24:26.234Z,97017.53
2023-01-11T07:26:56.625Z,97005.88
2023-01-11T07:29:25.430Z,97013.75
2023-01-11T07:31:54.618Z,97005.63
2023-01-11T07:34:24.200Z,97013.63
2023-01-11T07:36:53.242Z,97004.63
2023-01-11T07:39:26.831Z,97015.63
2023-01-11T07:42:16.037Z,97010.28
2023-01-11T07:44:44.941Z,97035.31
2023-01-11T07:47:13.794Z,97039.97
2023-01-11T07:49:43.059Z,97036.88
2023-01-11T07:52:11.902Z,97034.81
2023-01-11T07:54:40.762Z,97046.34
2023-01-11T07:57:11.112Z,97035.78
2023-01-11T07:59:39.961Z,97042.97
2023-01-11T08:02:08.812Z,97071.53
2023-01-11T08:04:37.884Z,97068.88
2023-01-11T08:07:06.767Z,97072.41
2023-01-11T08:09:36.047Z,97077.34
2023-01-11T08:12:18.792Z,97072.56
2023-01-11T08:14:49.243Z,97079.31
2023-01-11T08:17:21.194Z,97082.97
2023-01-11T08:19:50.175Z,97083.97
2023-01-11T08:22:19.526Z,97090.47
2023-01-11T08:24:48.424Z,97094.69
2023-01-11T08:27:19.604Z,97079.91
2023-01-11T08:29:49.834Z,97083.69
2023-01-11T08:32:18.632Z,97081.16
2023-01-11T08:35:06.719Z,97073.44
2023-01-11T08:37:44.329Z,97071.88
2023-01-11T08:40:16.180Z,97061.47
2023-01-11T08:42:47.499Z,97067.69
2023-01-11T08:45:18.511Z,97078.53
2023-01-11T08:47:49.185Z,97081.66
2023-01-11T08:50:18.950Z,97077.13
2023-01-11T08:52:48.793Z,97080.63
2023-01-11T08:55:17.772Z,97070.06
2023-01-11T08:57:52.690Z,97073.00
2023-01-11T09:00:23.427Z,97071.16
2023-01-11T09:02:55.622Z,97068.78
2023-01-11T09:05:25.197Z,97074.69
2023-01-11T09:07:59.492Z,97084.69
2023-01-11T09:10:28.377Z,97094.53
2023-01-11T09:12:59.190Z,97102.03
2023-01-11T09:15:30.852Z,97104.25
2023-01-11T09:18:04.873Z,97108.75
2023-01-11T09:20:34.853Z,97096.34
2023-01-11T09:23:06.600Z,97103.16
2023-01-11T09:25:53.578Z,97106.53
2023-01-11T09:28:22.518Z,97108.75
2023-01-11T09:30:55.958Z,97114.69
2023-01-11T09:33:24.883Z,97134.78
2023-01-11T09:36:00.771Z,97140.31
2023-01-11T09:38:35.633Z,97157.88
2023-01-11T09:41:09.480Z,97160.41
2023-01-11T09:43:41.491Z,97166.59
2023-01-11T09:46:12.062Z,97167.16
2023-01-11T09:48:43.847Z,97169.28
2023-01-11T09:51:16.139Z,97158.50
2023-01-11T09:53:50.693Z,97154.88
2023-01-11T09:56:24.986Z,97162.28
2023-01-11T09:59:00.543Z,97148.56
2023-01-11T10:01:41.157Z,97149.72
2023-01-11T10:04:26.890Z,97145.25
2023-01-11T10:07:07.768Z,97155.06
2023-01-11T10:18:23.665Z,97167.56
2023-01-11T10:18:48.877Z,97160.66
2023-01-11T10:21:16.155Z,97144.03
2023-01-11T10:23:49.958Z,97154.88
2023-01-11T10:26:27.768Z,97156.25
2023-01-11T10:29:17.781Z,97154.41
2023-01-11T10:32:22.339Z,97176.81
2023-01-11T10:35:17.193Z,97186.66
2023-01-11T10:37:59.878Z,97196.13
2023-01-11T10:40:35.785Z,97196.38
2023-01-11T10:43:09.382Z,97191.28
2023-01-11T10:45:40.482Z,97192.66
2023-01-11T10:48:12.131Z,97195.72
2023-01-11T10:50:47.182Z,97183.38
2023-01-11T10:53:20.698Z,97182.28
2023-01-11T10:55:53.647Z,97158.28
2023-01-11T10:58:31.775Z,97181.41
2023-01-11T11:01:09.092Z,97177.63
2023-01-11T11:03:46.443Z,97179.06
2023-01-11T11:06:22.336Z,97175.13
2023-01-11T11:08:53.886Z,97187.25
2023-01-11T11:11:24.198Z,97175.25
2023-01-11T11:13:55.445Z,97172.16
2023-01-11T11:16:35.727Z,97174.16
2023-01-11T11:19:04.522Z,97169.34
2023-01-11T11:21:37.598Z,97164.66
2023-01-11T11:24:08.617Z,97177.84
2023-01-11T11:26:39.932Z,97174.22
2023-01-11T11:29:09.535Z,97175.78
2023-01-11T11:31:39.070Z,97176.25
2023-01-11T11:34:09.648Z,97179.91
2023-01-11T11:36:46.655Z,97176.91
2023-01-11T11:39:21.132Z,97186.78
2023-01-11T11:41:52.414Z,97193.41
2023-01-11T11:44:22.267Z,97195.28
2023-01-11T11:46:58.863Z,97189.16
2023-01-11T11:49:28.008Z,97183.50
2023-01-11T11:52:00.079Z,97201.19
2023-01-11T11:54:30.177Z,97195.97
2023-01-11T11:56:59.938Z,97202.53
2023-01-11T11:59:30.300Z,97201.97
2023-01-11T12:02:01.764Z,97198.09
2023-01-11T12:04:38.228Z,97195.84
2023-01-11T12:07:10.192Z,97203.84
2023-01-11T12:09:39.083Z,97193.16
2023-01-11T12:12:10.073Z,97199.34
2023-01-11T12:14:40.491Z,97189.69
2023-01-11T12:17:22.908Z,97195.41
2023-01-11T12:19:51.795Z,97188.66
2023-01-11T12:22:22.854Z,97180.84
2023-01-11T12:25:27.359Z,97186.66
2023-01-11T12:28:00.746Z,97187.53
2023-01-11T12:30:32.094Z,97176.94
2023-01-11T12:33:21.704Z,97174.91
2023-01-11T12:35:54.478Z,97166.44
2023-01-11T12:38:32.096Z,97173.53
2023-01-11T12:41:09.043Z,97177.09
2023-01-11T12:44:00.383Z,97168.25
2023-01-11T12:46:35.092Z,97168.41
2023-01-11T12:49:13.888Z,97161.72
2023-01-11T12:51:52.267Z,97155.81
2023-01-11T12:54:31.269Z,97160.56
2023-01-11T13:00:07.607Z,97151.94
2023-01-11T13:02:45.729Z,97159.59
2023-01-11T13:05:18.471Z,97167.28
2023-01-11T13:07:53.870Z,97170.88
2023-01-11T13:10:31.585Z,97177.13
2023-01-11T13:13:02.357Z,97187.81
2023-01-11T13:15:36.010Z,97196.88
2023-01-11T13:18:09.026Z,97184.22
2023-01-11T13:20:59.299Z,97190.13
2023-01-11T13:23:34.651Z,97193.91
2023-01-11T13:26:16.927Z,97184.06
2023-01-11T13:28:51.869Z,97191.88
2023-01-11T13:31:22.816Z,97189.22
2023-01-11T13:33:56.665Z,97194.69
2023-01-11T13:36:27.417Z,97196.28
2023-01-11T13:38:58.005Z,97192.13
2023-01-11T13:41:30.571Z,97202.84
2023-01-11T13:44:01.150Z,97194.25
2023-01-11T13:46:42.371Z,97189.88
2023-01-11T13:49:16.041Z,97187.13
2023-01-11T13:51:47.802Z,97201.41
2023-01-11T13:54:18.444Z,97188.03
2023-01-11T13:56:49.939Z,97180.81
2023-01-11T13:59:37.539Z,97184.13
2023-01-11T14:02:09.552Z,97179.63
2023-01-11T14:04:43.854Z,97175.19
2023-01-11T14:07:20.170Z,97171.19
2023-01-11T14:10:01.305Z,97176.78
2023-01-11T14:12:39.309Z,97184.53
2023-01-11T14:15:16.738Z,97182.44
2023-01-11T14:17:58.819Z,97183.50
2023-01-11T14:20:30.662Z,97189.50
2023-01-11T14:23:03.945Z,97179.75
2023-01-11T14:25:34.111Z,97185.22
2023-01-11T14:28:23.703Z,97185.13
2023-01-11T14:31:03.364Z,97192.97
2023-01-11T14:33:57.355Z,97180.97
2023-01-11T14:36:38.681Z,97188.22
2023-01-11T14:39:16.235Z,97178.09
2023-01-11T14:41:57.068Z,97195.91
2023-01-11T14:44:36.275Z,97194.06
2023-01-11T14:47:17.754Z,97195.75
2023-01-11T14:49:58.120Z,97209.91
2023-01-11T14:52:39.565Z,97205.78
2023-01-11T14:55:12.745Z,97208.66
2023-01-11T14:57:42.270Z,97210.19
2023-01-11T15:00:40.392Z,97225.84
2023-01-11T15:03:31.328Z,97223.91
2023-01-11T15:06:21.727Z,97231.34
2023-01-11T15:08:52.973Z,97232.56
2023-01-11T15:11:26.799Z,97235.47
2023-01-11T15:13:58.975Z,97234.91
2023-01-11T15:16:42.873Z,97237.66
2023-01-11T15:19:16.205Z,97235.50
2023-01-11T15:21:50.848Z,97237.44
2023-01-11T15:24:24.254Z,97234.41
2023-01-11T15:26:55.851Z,97235.84
2023-01-11T15:29:25.758Z,97240.34
2023-01-11T15:32:07.342Z,97235.03
2023-01-11T15:34:44.700Z,97231.28
2023-01-11T15:37:28.376Z,97231.41
2023-01-11T15:39:59.828Z,97235.13
2023-01-11T15:42:41.619Z,97242.44
2023-01-11T15:45:28.894Z,97248.63
2023-01-11T15:48:09.715Z,97255.91
2023-01-11T15:51:01.139Z,97249.94
2023-01-11T15:53:43.181Z,97253.34
2023-01-11T15:56:44.210Z,97254.81
2023-01-11T15:59:34.001Z,97255.31
2023-01-11T16:02:32.476Z,97267.41
2023-01-11T16:05:02.141Z,97264.00
2023-01-11T16:07:52.465Z,97271.44
2023-01-11T16:10:32.462Z,97267.91
2023-01-11T16:13:08.450Z,97275.53
2023-01-11T16:15:49.571Z,97275.19
2023-01-11T16:18:19.891Z,97287.66
2023-01-11T16:20:59.148Z,97292.53
2023-01-11T16:23:32.387Z,97283.66
2023-01-11T16:26:07.937Z,97290.56
2023-01-11T16:28:45.735Z,97286.06
2023-01-11T16:31:19.917Z,97286.31
2023-01-11T16:33:49.897Z,97281.59
2023-01-11T16:36:24.226Z,97289.47
2023-01-11T16:39:04.135Z,97287.31
2023-01-11T16:41:37.006Z,97291.06
2023-01-11T16:44:07.814Z,97295.78
2023-01-11T16:47:05.886Z,97292.16
2023-01-11T16:49:35.244Z,97292.25
2023-01-11T16:52:14.317Z,97300.50
2023-01-11T16:54:44.669Z,97297.25
2023-01-11T16:57:15.700Z,97298.19
2023-01-11T16:59:45.158Z,97311.19
2023-01-11T17:02:29.178Z,97324.28
2023-01-11T17:05:00.928Z,97313.59
2023-01-11T17:07:31.135Z,97320.50
2023-01-11T17:10:17.654Z,97327.44
2023-01-11T17:12:49.068Z,97323.06
2023-01-11T17:15:20.415Z,97337.94
2023-01-11T17:17:49.773Z,97326.81
2023-01-11T17:20:21.647Z,97336.97
2023-01-11T17:22:56.100Z,97346.44
2023-01-11T17:25:45.551Z,97333.59
2023-01-11T17:28:16.541Z,97330.56
2023-01-11T17:30:45.705Z,97329.13
2023-01-11T17:33:26.422Z,97340.63
2023-01-11T17:35:55.391Z,97342.06
2023-01-11T17:38:25.460Z,97334.94
2023-01-11T17:40:57.785Z,97339.41
2023-01-11T17:43:42.096Z,97345.00
2023-01-11T17:46:16.377Z,97336.28
2023-01-11T17:48:53.087Z,97333.47
2023-01-11T17:51:26.235Z,97345.72
2023-01-11T17:53:55.245Z,97350.91
2023-01-11T17:56:38.547Z,97342.78
2023-01-11T17:59:18.308Z,97355.53
2023-01-11T18:01:47.792Z,97355.03
2023-01-11T18:04:19.233Z,97354.16
2023-01-11T18:06:48.767Z,97361.09
2023-01-11T18:09:23.460Z,97359.75
2023-01-11T18:11:53.998Z,97363.00
2023-01-11T18:14:24.474Z,97363.63
2023-01-11T18:17:00.514Z,97364.94
2023-01-11T18:19:45.997Z,97363.00
2023-01-11T18:22:29.855Z,97364.97
2023-01-11T18:24:58.924Z,97358.16
2023-01-11T18:27:30.878Z,97365.59
2023-01-11T18:30:08.855Z,97360.00
2023-01-11T18:32:40.957Z,97361.44
2023-01-11T18:35:18.331Z,97359.03
2023-01-11T18:37:47.882Z,97356.25
2023-01-11T18:40:17.514Z,97359.88
2023-01-11T18:42:49.961Z,97361.00
2023-01-11T18:45:19.013Z,97354.41
2023-01-11T18:47:48.192Z,97356.50
2023-01-11T18:50:29.250Z,97350.66
2023-01-11T18:52:58.515Z,97348.09
2023-01-11T18:55:28.222Z,97341.72
2023-01-11T18:58:01.313Z,97336.00
2023-01-11T19:00:32.792Z,97330.09
2023-01-11T19:03:02.038Z,97336.97
2023-01-11T19:05:30.932Z,97342.66
2023-01-11T19:07:59.845Z,97341.34
2023-01-11T19:10:30.998Z,97348.50
2023-01-11T19:13:01.882Z,97336.72
2023-01-11T19:15:31.108Z,97333.56
2023-01-11T19:23:00.805Z,97327.16
2023-01-11T19:25:29.976Z,97333.66
2023-01-11T19:27:58.864Z,97324.50
2023-01-11T19:30:29.240Z,97316.00
2023-01-11T19:32:58.051Z,97306.16
2023-01-11T19:35:27.229Z,97305.06
2023-01-11T19:37:56.147Z,97308.72
2023-01-11T19:40:24.983Z,97302.06
2023-01-11T19:42:53.840Z,97300.72
2023-01-11T19:45:22.971Z,97291.41
2023-01-11T19:47:53.497Z,97306.66
2023-01-11T19:50:22.310Z,97295.63
2023-01-11T19:52:51.279Z,97305.06
2023-01-11T19:55:20.531Z,97299.47
2023-01-11T19:57:49.972Z,97299.09
2023-01-11T20:00:20.857Z,97300.81
2023-01-11T20:02:49.746Z,97294.84
2023-01-11T20:05:20.097Z,97295.72
2023-01-11T20:07:49.851Z,97295.56
2023-01-11T20:10:19.025Z,97298.50
2023-01-11T20:12:47.847Z,97291.34
2023-01-11T20:15:17.760Z,97294.50
2023-01-11T20:17:46.569Z,97289.53
2023-01-11T20:20:15.671Z,97282.28
2023-01-11T20:23:04.547Z,97289.94
2023-01-11T20:25:33.530Z,97286.59
2023-01-11T20:28:02.714Z,97292.31
2023-01-11T20:30:31.848Z,97282.13
2023-01-11T20:33:00.743Z,97285.88
2023-01-11T20:35:31.314Z,97278.47
2023-01-11T20:38:01.893Z,97269.03
2023-01-11T20:40:30.756Z,97273.84
2023-01-11T20:42:59.588Z,97277.13
2023-01-11T20:45:29.501Z,97269.47
2023-01-11T20:47:58.349Z,97265.69
2023-01-11T20:50:27.463Z,97276.59
2023-01-11T20:52:59.627Z,97268.38
2023-01-11T20:55:48.375Z,97272.38
2023-01-11T20:58:17.213Z,97270.88
2023-01-11T21:00:46.055Z,97265.25
2023-01-11T21:03:14.895Z,97265.28
2023-01-11T21:05:44.320Z,97253.91
2023-01-11T21:08:13.120Z,97245.19
2023-01-11T21:10:43.600Z,97246.25
2023-01-11T21:13:13.516Z,97260.06
2023-01-11T21:15:42.743Z,97254.47
2023-01-11T21:18:11.803Z,97254.19
2023-01-11T21:20:43.218Z,97251.13
2023-01-11T21:23:15.549Z,97248.72
2023-01-11T21:25:46.845Z,97247.75
2023-01-11T21:28:16.038Z,97255.31
2023-01-11T21:30:44.864Z,97255.19
2023-01-11T21:33:14.900Z,97260.63
2023-01-11T21:35:43.910Z,97260.25
2023-01-11T21:38:15.183Z,97248.81
2023-01-11T21:40:45.744Z,97243.69
2023-01-11T21:43:15.110Z,97244.66
2023-01-11T21:45:44.020Z,97245.88
2023-01-11T21:48:13.903Z,97233.53
2023-01-11T21:50:46.562Z,97236.81
2023-01-11T21:53:15.462Z,97230.03
2023-01-11T21:55:45.936Z,97214.78
2023-01-11T21:58:15.429Z,97225.06
2023-01-11T22:00:44.355Z,97215.84
2023-01-11T22:03:13.245Z,97217.66
2023-01-11T22:05:42.421Z,97226.53
2023-01-11T22:08:11.283Z,97219.47
2023-01-11T22:10:40.820Z,97209.16
2023-01-11T22:13:13.176Z,97218.25
2023-01-11T22:15:42.359Z,97210.00
2023-01-11T22:18:12.030Z,97215.38
2023-01-11T22:20:41.190Z,97210.28
2023-01-11T22:23:10.413Z,97213.03
2023-01-11T22:25:39.557Z,97215.25
2023-01-11T22:28:08.375Z,97217.88
2023-01-11T22:30:38.510Z,97217.03
2023-01-11T22:33:08.197Z,97210.03
2023-01-11T22:35:37.242Z,97209.16
2023-01-11T22:38:06.013Z,97217.03
2023-01-11T22:40:34.794Z,97226.84
2023-01-11T22:43:03.940Z,97219.59
2023-01-11T22:45:32.839Z,97230.84
2023-01-11T22:48:03.217Z,97240.03
2023-01-11T22:50:32.075Z,97241.25
2023-01-11T22:53:01.225Z,97232.41
2023-01-11T22:55:30.073Z,97222.72
2023-01-11T22:57:58.886Z,97216.66
2023-01-11T23:00:27.864Z,97231.09
2023-01-11T23:02:58.387Z,97224.56
2023-01-11T23:05:28.644Z,97223.09
2023-01-11T23:07:57.787Z,97226.88
2023-01-11T23:10:26.603Z,97238.03
2023-01-11T23:13:09.026Z,97230.38
2023-01-11T23:15:40.206Z,97234.16
2023-01-11T23:18:09.255Z,97235.16
2023-01-11T23:20:39.411Z,97233.56
2023-01-11T23:23:08.171Z,97220.97
2023-01-11T23:25:37.247Z,97231.75
2023-01-11T23:28:06.292Z,97218.06
2023-01-11T23:30:35.102Z,97214.69
2023-01-11T23:33:03.903Z,97216.28
2023-01-11T23:35:32.773Z,97206.25
2023-01-11T23:38:02.923Z,97223.88
2023-01-11T23:40:51.660Z,97214.56
2023-01-11T23:43:20.469Z,97204.78
2023-01-11T23:45:49.704Z,97204.53
2023-01-11T23:48:17.535Z,97207.81
2023-01-11T23:50:46.372Z,97208.28
2023-01-11T23:53:16.969Z,97201.47
2023-01-11T23:55:45.841Z,97224.16
2023-01-11T23:58:14.664Z,97222.69
